createdAt,value
2023-04-16T00:01:12.142Z,102118.63
2023-04-16T00:03:39.336Z,102130.66
2023-04-16T00:06:06.481Z,102123.38
2023-04-16T00:08:33.476Z,102120.25
2023-04-16T00:11:00.583Z,102123.06
2023-04-16T00:13:28.153Z,102122.78
2023-04-16T00:15:55.253Z,102121.81
2023-04-16T00:18:22.312Z,102122.56
2023-04-16T00:21:02.642Z,102124.00
2023-04-16T00:23:29.587Z,102120.19
2023-04-16T00:26:02.835Z,102128.19
2023-04-16T00:28:29.800Z,102124.03
2023-04-16T00:30:56.873Z,102120.41
2023-04-16T00:33:39.047Z,102121.38
2023-04-16T00:36:06.439Z,102115.25
2023-04-16T00:38:35.261Z,102128.97
2023-04-16T00:41:02.306Z,102128.13
2023-04-16T00:43:29.223Z,102117.03
2023-04-16T00:45:57.580Z,102120.56
2023-04-16T00:48:28.150Z,102126.63
2023-04-16T00:50:55.919Z,102109.13
2023-04-16T00:53:22.981Z,102122.19
2023-04-16T00:55:50.646Z,102132.31
2023-04-16T00:58:19.756Z,102118.53
2023-04-16T01:00:46.660Z,102113.44
2023-04-16T01:03:13.865Z,102119.31
2023-04-16T01:05:41.172Z,102122.41
2023-04-16T01:08:16.477Z,102120.88
2023-04-16T01:10:43.385Z,102111.47
2023-04-16T01:13:16.413Z,102114.56
2023-04-16T01:15:50.603Z,102120.88
2023-04-16T01:18:20.159Z,102126.72
2023-04-16T01:20:48.444Z,102133.13
2023-04-16T01:23:16.080Z,102137.78
2023-04-16T01:25:43.278Z,102135.00
2023-04-16T01:28:10.714Z,102132.97
2023-04-16T01:30:51.041Z,102135.28
2023-04-16T01:33:19.507Z,102121.88
2023-04-16T01:35:47.591Z,102135.66
2023-04-16T01:38:14.555Z,102133.63
2023-04-16T01:40:41.505Z,102140.78
2023-04-16T01:43:08.451Z,102131.03
2023-04-16T01:45:36.318Z,102130.16
2023-04-16T01:48:04.515Z,102128.50
2023-04-16T01:50:32.882Z,102133.00
2023-04-16T01:53:01.961Z,102134.22
2023-04-16T01:55:33.993Z,102137.34
2023-04-16T01:58:00.916Z,102131.19
2023-04-16T02:00:28.035Z,102136.84
2023-04-16T02:02:55.071Z,102134.16
2023-04-16T02:05:22.253Z,102142.22
2023-04-16T02:07:49.314Z,102138.91
2023-04-16T02:10:16.566Z,102140.63
2023-04-16T02:12:43.483Z,102135.66
2023-04-16T02:15:11.109Z,102131.69
2023-04-16T02:17:38.051Z,102133.84
2023-04-16T02:20:08.039Z,102143.06
2023-04-16T02:22:35.053Z,102132.50
2023-04-16T02:25:02.076Z,102128.19
2023-04-16T02:27:29.069Z,102139.00
2023-04-16T02:29:56.103Z,102139.56
2023-04-16T02:32:22.990Z,102143.75
2023-04-16T02:34:52.017Z,102146.06
2023-04-16T02:37:19.296Z,102136.81
2023-04-16T02:39:47.429Z,102137.16
2023-04-16T02:42:14.824Z,102132.31
2023-04-16T02:45:24.407Z,102139.53
2023-04-16T02:48:08.815Z,102141.09
2023-04-16T02:50:43.033Z,102133.72
2023-04-16T02:53:16.117Z,102136.56
2023-04-16T02:55:55.003Z,102135.84
2023-04-16T02:58:24.410Z,102129.91
2023-04-16T03:01:03.832Z,102120.03
2023-04-16T03:03:30.923Z,102125.97
2023-04-16T03:05:57.861Z,102117.09
2023-04-16T03:08:24.925Z,102123.22
2023-04-16T03:10:52.118Z,102127.28
2023-04-16T03:13:19.019Z,102120.94
2023-04-16T03:15:53.571Z,102127.22
2023-04-16T03:19:16.430Z,102133.25
2023-04-16T03:21:48.614Z,102136.69
2023-04-16T03:24:15.872Z,102142.53
2023-04-16T03:26:48.647Z,102145.75
2023-04-16T03:29:15.564Z,102136.91
2023-04-16T03:31:53.821Z,102132.88
2023-04-16T03:34:20.882Z,102129.84
2023-04-16T03:37:34.986Z,102142.34
2023-04-16T03:40:02.188Z,102136.69
2023-04-16T03:42:29.080Z,102139.88
2023-04-16T03:44:56.196Z,102135.88
2023-04-16T03:47:23.539Z,102149.81
2023-04-16T03:49:50.960Z,102142.22
2023-04-16T03:52:18.122Z,102152.03
2023-04-16T03:54:45.160Z,102140.38
2023-04-16T03:57:12.098Z,102136.97
2023-04-16T03:59:40.119Z,102140.53
2023-04-16T04:02:07.187Z,102136.56
2023-04-16T04:04:34.273Z,102142.31
2023-04-16T04:07:01.322Z,102144.44
2023-04-16T04:09:28.392Z,102141.00
2023-04-16T04:11:58.919Z,102134.00
2023-04-16T04:14:32.745Z,102151.75
2023-04-16T04:16:59.775Z,102147.34
2023-04-16T04:19:26.687Z,102147.56
2023-04-16T04:21:53.710Z,102149.28
2023-04-16T04:24:56.653Z,102148.09
2023-04-16T04:27:23.602Z,102138.25
2023-04-16T04:29:50.653Z,102151.03
2023-04-16T04:32:21.788Z,102144.75
2023-04-16T04:34:48.787Z,102150.66
2023-04-16T04:37:15.957Z,102160.22
2023-04-16T04:39:42.916Z,102151.25
2023-04-16T04:42:09.987Z,102161.72
2023-04-16T04:44:36.944Z,102161.81
2023-04-16T04:47:03.881Z,102164.72
2023-04-16T04:49:36.031Z,102164.59
2023-04-16T04:52:15.370Z,102158.22
2023-04-16T04:54:42.441Z,102152.00
2023-04-16T04:57:09.457Z,102157.28
2023-04-16T04:59:36.672Z,102152.47
2023-04-16T05:02:03.861Z,102167.28
2023-04-16T05:04:31.620Z,102173.03
2023-04-16T05:06:58.677Z,102166.31
2023-04-16T05:09:25.900Z,102168.28
2023-04-16T05:11:54.048Z,102160.09
2023-04-16T05:14:21.319Z,102170.72
2023-04-16T05:16:48.381Z,102164.69
2023-04-16T05:19:16.621Z,102161.53
2023-04-16T05:21:43.719Z,102169.78
2023-04-16T05:24:11.294Z,102176.06
2023-04-16T05:26:39.493Z,102177.06
2023-04-16T05:29:06.477Z,102175.44
2023-04-16T05:31:33.413Z,102172.59
2023-04-16T05:34:03.562Z,102185.41
2023-04-16T05:36:35.936Z,102182.50
2023-04-16T05:39:03.016Z,102177.56
2023-04-16T05:41:29.983Z,102182.16
2023-04-16T05:43:56.902Z,102188.81
2023-04-16T05:46:23.990Z,102192.84
2023-04-16T05:48:51.047Z,102185.13
2023-04-16T05:51:18.049Z,102194.47
2023-04-16T05:53:45.135Z,102210.97
2023-04-16T05:56:23.486Z,102194.22
2023-04-16T05:58:50.588Z,102204.53
2023-04-16T06:01:18.314Z,102195.72
2023-04-16T06:03:45.652Z,102196.97
2023-04-16T06:06:13.020Z,102193.81
2023-04-16T06:08:39.973Z,102198.78
2023-04-16T06:11:07.204Z,102197.81
2023-04-16T06:13:34.319Z,102202.16
2023-04-16T06:16:01.495Z,102199.38
2023-04-16T06:18:28.480Z,102202.06
2023-04-16T06:20:55.577Z,102201.19
2023-04-16T06:23:22.758Z,102214.50
2023-04-16T06:25:49.639Z,102200.84
2023-04-16T06:28:16.566Z,102204.25
2023-04-16T06:30:44.629Z,102208.22
2023-04-16T06:33:11.922Z,102208.69
2023-04-16T06:36:42.449Z,102217.22
2023-04-16T06:39:09.699Z,102207.59
2023-04-16T06:41:37.150Z,102225.75
2023-04-16T06:44:04.152Z,102216.22
2023-04-16T06:46:31.352Z,102220.13
2023-04-16T06:48:58.302Z,102220.69
2023-04-16T06:51:26.722Z,102228.53
2023-04-16T06:53:53.632Z,102223.50
2023-04-16T06:56:20.632Z,102229.56
2023-04-16T06:58:47.621Z,102240.59
2023-04-16T07:01:21.686Z,102233.84
2023-04-16T07:03:48.811Z,102237.41
2023-04-16T07:06:17.174Z,102251.63
2023-04-16T07:08:44.167Z,102245.13
2023-04-16T07:11:11.161Z,102240.44
2023-04-16T07:13:38.122Z,102247.72
2023-04-16T07:16:05.845Z,102247.66
2023-04-16T07:18:32.934Z,102253.56
2023-04-16T07:21:06.182Z,102253.34
2023-04-16T07:23:33.074Z,102260.84
2023-04-16T07:25:59.978Z,102257.88
2023-04-16T07:28:26.980Z,102249.63
2023-04-16T07:30:53.918Z,102254.28
2023-04-16T07:33:20.894Z,102245.78
2023-04-16T07:35:50.223Z,102257.66
2023-04-16T07:38:17.238Z,102249.00
2023-04-16T07:40:44.203Z,102247.06
2023-04-16T07:43:11.576Z,102252.56
2023-04-16T07:45:38.603Z,102251.97
2023-04-16T07:48:06.868Z,102250.28
2023-04-16T07:50:33.874Z,102271.31
2023-04-16T07:53:01.722Z,102264.25
2023-04-16T07:55:40.030Z,102264.44
2023-04-16T07:58:10.609Z,102268.25
2023-04-16T08:00:37.954Z,102268.25
2023-04-16T08:03:05.376Z,102269.34
2023-04-16T08:05:32.446Z,102274.94
2023-04-16T08:07:59.378Z,102272.50
2023-04-16T08:10:26.632Z,102271.03
2023-04-16T08:12:53.947Z,102277.47
2023-04-16T08:15:21.176Z,102276.25
2023-04-16T08:17:53.737Z,102288.94
2023-04-16T08:20:20.829Z,102283.69
2023-04-16T08:22:49.298Z,102287.50
2023-04-16T08:25:16.312Z,102299.19
2023-04-16T08:27:43.285Z,102275.50
2023-04-16T08:30:10.496Z,102282.84
2023-04-16T08:32:37.483Z,102288.75
2023-04-16T08:35:04.866Z,102289.44
2023-04-16T08:37:31.840Z,102289.78
2023-04-16T08:39:58.728Z,102293.88
2023-04-16T08:43:01.309Z,102293.22
2023-04-16T08:45:28.394Z,102298.78
2023-04-16T08:47:55.481Z,102289.38
2023-04-16T08:50:26.774Z,102295.34
2023-04-16T08:52:59.664Z,102298.56
2023-04-16T08:55:49.157Z,102308.31
2023-04-16T08:58:20.828Z,102302.78
2023-04-16T09:00:49.513Z,102297.47
2023-04-16T09:03:17.052Z,102294.81
2023-04-16T09:05:44.413Z,102291.50
2023-04-16T09:08:11.376Z,102305.72
2023-04-16T09:10:38.334Z,102290.16
2023-04-16T09:13:05.375Z,102293.28
2023-04-16T09:15:35.169Z,102292.25
2023-04-16T09:18:02.215Z,102288.19
2023-04-16T09:20:29.235Z,102286.41
2023-04-16T09:22:57.134Z,102291.31
2023-04-16T09:25:26.429Z,102288.50
2023-04-16T09:27:53.608Z,102286.59
2023-04-16T09:30:27.163Z,102292.53
2023-04-16T09:33:22.628Z,102302.06
2023-04-16T09:35:54.237Z,102301.44
2023-04-16T09:38:21.755Z,102299.28
2023-04-16T09:41:09.232Z,102295.47
2023-04-16T09:43:37.015Z,102301.00
2023-04-16T09:46:08.016Z,102298.06
2023-04-16T09:48:36.224Z,102302.94
2023-04-16T09:51:06.710Z,102320.91
2023-04-16T09:53:33.700Z,102309.97
2023-04-16T09:56:11.757Z,102304.69
2023-04-16T09:58:39.149Z,102322.03
2023-04-16T10:01:09.902Z,102312.97
2023-04-16T10:03:39.903Z,102311.81
2023-04-16T10:06:07.015Z,102313.19
2023-04-16T10:08:34.064Z,102319.72
2023-04-16T10:11:01.459Z,102316.66
2023-04-16T10:13:28.453Z,102316.41
2023-04-16T10:15:57.334Z,102309.44
2023-04-16T10:18:24.551Z,102319.63
2023-04-16T10:20:51.943Z,102325.00
2023-04-16T10:23:22.082Z,102323.09
2023-04-16T10:25:50.553Z,102338.28
2023-04-16T10:28:17.799Z,102323.09
2023-04-16T10:30:54.251Z,102334.25
2023-04-16T10:33:28.068Z,102336.72
2023-04-16T10:36:27.698Z,102331.69
2023-04-16T10:39:00.147Z,102321.22
2023-04-16T10:41:27.637Z,102327.03
2023-04-16T10:44:10.003Z,102327.59
2023-04-16T10:46:51.375Z,102317.59
2023-04-16T10:49:26.511Z,102326.38
2023-04-16T10:51:58.694Z,102330.59
2023-04-16T10:54:41.417Z,102316.25
2023-04-16T10:57:17.804Z,102315.13
2023-04-16T10:59:46.106Z,102311.56
2023-04-16T11:02:18.346Z,102321.88
2023-04-16T11:04:47.796Z,102306.97
2023-04-16T11:07:33.051Z,102310.25
2023-04-16T11:10:04.543Z,102327.41
2023-04-16T11:12:50.367Z,102320.50
2023-04-16T11:15:21.951Z,102314.06
2023-04-16T11:17:54.627Z,102321.75
2023-04-16T11:20:28.387Z,102323.13
2023-04-16T11:22:57.527Z,102326.50
2023-04-16T11:25:30.117Z,102317.91
2023-04-16T11:27:59.337Z,102312.00
2023-04-16T11:30:30.843Z,102315.88
2023-04-16T11:32:57.889Z,102318.78
2023-04-16T11:35:25.031Z,102315.91
2023-04-16T11:37:57.330Z,102312.22
2023-04-16T11:40:25.214Z,102315.59
2023-04-16T11:42:52.275Z,102316.38
2023-04-16T11:45:19.527Z,102307.53
2023-04-16T11:47:53.096Z,102316.41
2023-04-16T11:50:23.569Z,102304.34
2023-04-16T11:52:52.709Z,102311.44
2023-04-16T11:55:20.672Z,102315.03
2023-04-16T11:57:48.270Z,102313.28
2023-04-16T12:00:15.861Z,102313.19
2023-04-16T12:02:52.361Z,102323.97
2023-04-16T12:05:37.266Z,102321.16
2023-04-16T12:08:10.269Z,102325.78
2023-04-16T12:10:55.239Z,102328.38
2023-04-16T12:13:22.806Z,102321.84
2023-04-16T12:15:51.936Z,102327.81
2023-04-16T12:18:22.499Z,102322.72
2023-04-16T12:20:53.257Z,102328.16
2023-04-16T12:23:24.193Z,102329.47
2023-04-16T12:25:52.202Z,102326.22
2023-04-16T12:28:30.976Z,102331.72
2023-04-16T12:30:58.038Z,102329.91
2023-04-16T12:33:25.469Z,102335.47
2023-04-16T12:35:52.584Z,102334.03
2023-04-16T12:38:20.438Z,102337.34
2023-04-16T12:40:48.746Z,102340.31
2023-04-16T12:43:16.017Z,102340.59
2023-04-16T12:45:43.014Z,102335.78
2023-04-16T12:48:10.311Z,102330.81
2023-04-16T12:50:37.309Z,102339.84
2023-04-16T12:53:04.383Z,102324.13
2023-04-16T12:55:31.418Z,102320.81
2023-04-16T12:57:58.366Z,102328.63
2023-04-16T13:00:25.451Z,102325.50
2023-04-16T13:02:52.664Z,102333.00
2023-04-16T13:05:19.764Z,102332.31
2023-04-16T13:07:46.794Z,102333.78
2023-04-16T13:10:13.845Z,102330.19
2023-04-16T13:12:41.046Z,102316.53
2023-04-16T13:15:09.218Z,102323.28
2023-04-16T13:17:36.232Z,102323.72
2023-04-16T13:20:03.348Z,102330.75
2023-04-16T13:22:30.508Z,102328.28
2023-04-16T13:24:57.477Z,102326.00
2023-04-16T13:27:24.561Z,102320.47
2023-04-16T13:29:51.491Z,102329.59
2023-04-16T13:32:18.934Z,102326.94
2023-04-16T13:34:46.088Z,102320.16
2023-04-16T13:37:13.242Z,102322.25
2023-04-16T13:39:40.176Z,102319.34
2023-04-16T13:42:07.235Z,102320.78
2023-04-16T13:44:34.148Z,102314.09
2023-04-16T13:47:01.390Z,102312.78
2023-04-16T13:49:28.414Z,102307.84
2023-04-16T13:51:55.476Z,102316.31
2023-04-16T13:54:22.409Z,102311.59
2023-04-16T13:56:51.235Z,102314.84
2023-04-16T13:59:18.777Z,102314.00
2023-04-16T14:01:45.822Z,102312.75
2023-04-16T14:04:12.895Z,102316.63
2023-04-16T14:06:39.916Z,102324.03
2023-04-16T14:09:07.154Z,102324.34
2023-04-16T14:11:34.084Z,102311.22
2023-04-16T14:14:01.002Z,102317.06
2023-04-16T14:16:27.979Z,102319.78
2023-04-16T14:18:54.944Z,102322.47
2023-04-16T14:21:21.861Z,102324.75
2023-04-16T14:23:49.017Z,102318.72
2023-04-16T14:26:16.081Z,102317.31
2023-04-16T14:28:43.137Z,102312.56
2023-04-16T14:31:10.123Z,102305.28
2023-04-16T14:33:37.044Z,102310.91
2023-04-16T14:36:04.397Z,102307.63
2023-04-16T14:38:32.078Z,102303.72
2023-04-16T14:41:00.375Z,102304.25
2023-04-16T14:43:27.518Z,102294.97
2023-04-16T14:45:54.542Z,102302.38
2023-04-16T14:48:22.118Z,102300.81
2023-04-16T14:50:49.118Z,102299.22
2023-04-16T14:53:16.346Z,102298.13
2023-04-16T14:55:43.264Z,102297.25
2023-04-16T14:58:10.822Z,102295.06
2023-04-16T15:00:38.048Z,102293.97
2023-04-16T15:03:05.847Z,102284.84
2023-04-16T15:05:33.137Z,102281.16
2023-04-16T15:08:00.651Z,102289.94
2023-04-16T15:10:28.133Z,102297.88
2023-04-16T15:12:55.290Z,102289.81
2023-04-16T15:15:22.280Z,102287.13
2023-04-16T15:17:51.030Z,102291.16
2023-04-16T15:20:18.522Z,102291.09
2023-04-16T15:22:45.501Z,102297.09
2023-04-16T15:25:12.655Z,102295.22
2023-04-16T15:27:39.628Z,102294.88
2023-04-16T15:30:07.513Z,102295.47
2023-04-16T15:32:34.429Z,102292.53
2023-04-16T15:35:04.906Z,102291.53
2023-04-16T15:37:31.952Z,102288.28
2023-04-16T15:39:58.992Z,102288.63
2023-04-16T15:42:25.972Z,102288.25
2023-04-16T15:44:52.920Z,102282.44
2023-04-16T15:47:19.869Z,102284.72
2023-04-16T15:49:46.771Z,102290.50
2023-04-16T15:52:13.785Z,102290.91
2023-04-16T15:54:40.954Z,102299.75
2023-04-16T15:57:07.999Z,102290.13
2023-04-16T15:59:34.972Z,102298.34
2023-04-16T16:02:02.106Z,102290.97
2023-04-16T16:04:29.235Z,102300.63
2023-04-16T16:06:56.948Z,102288.34
2023-04-16T16:09:26.770Z,102293.59
2023-04-16T16:11:54.983Z,102292.16
2023-04-16T16:14:22.758Z,102285.50
2023-04-16T16:16:49.921Z,102295.22
2023-04-16T16:19:17.604Z,102295.59
2023-04-16T16:21:44.579Z,102292.56
2023-04-16T16:24:11.518Z,102290.56
2023-04-16T16:26:38.538Z,102300.44
2023-04-16T16:29:05.722Z,102290.59
2023-04-16T16:31:32.872Z,102288.78
2023-04-16T16:34:00.040Z,102301.03
2023-04-16T16:36:29.687Z,102305.38
2023-04-16T16:38:56.992Z,102306.22
2023-04-16T16:41:23.896Z,102300.84
2023-04-16T16:43:51.081Z,102299.16
2023-04-16T16:46:18.076Z,102303.31
2023-04-16T16:48:45.014Z,102309.69
2023-04-16T16:51:11.994Z,102305.34
2023-04-16T16:53:38.954Z,102320.25
2023-04-16T16:56:06.120Z,102311.16
2023-04-16T16:58:33.046Z,102305.59
2023-04-16T17:01:00.229Z,102317.94
2023-04-16T17:03:27.593Z,102309.72
2023-04-16T17:05:54.854Z,102316.25
2023-04-16T17:08:21.934Z,102313.19
2023-04-16T17:10:48.907Z,102318.13
2023-04-16T17:13:19.696Z,102315.56
2023-04-16T17:15:47.110Z,102309.63
2023-04-16T17:18:14.080Z,102308.66
2023-04-16T17:20:41.287Z,102315.19
2023-04-16T17:23:08.370Z,102301.53
2023-04-16T17:25:35.289Z,102314.78
2023-04-16T17:28:02.982Z,102310.94
2023-04-16T17:30:31.589Z,102312.91
2023-04-16T17:32:58.642Z,102300.72
2023-04-16T17:35:25.785Z,102306.22
2023-04-16T17:37:52.721Z,102300.28
2023-04-16T17:40:19.742Z,102304.34
2023-04-16T17:42:48.784Z,102294.41
2023-04-16T17:45:16.039Z,102305.47
2023-04-16T17:47:44.486Z,102312.53
2023-04-16T17:50:12.001Z,102309.97
2023-04-16T17:52:39.054Z,102306.50
2023-04-16T17:55:07.725Z,102318.25
2023-04-16T17:57:34.669Z,102316.41
2023-04-16T18:00:01.610Z,102323.25
2023-04-16T18:02:28.776Z,102316.75
2023-04-16T18:04:56.186Z,102318.28
2023-04-16T18:07:23.343Z,102325.38
2023-04-16T18:09:50.323Z,102322.09
2023-04-16T18:12:17.247Z,102325.78
2023-04-16T18:14:44.799Z,102321.91
2023-04-16T18:17:13.066Z,102331.03
2023-04-16T18:19:43.615Z,102343.31
2023-04-16T18:22:11.210Z,102338.72
2023-04-16T18:24:38.214Z,102343.75
2023-04-16T18:27:05.861Z,102344.53
2023-04-16T18:29:34.125Z,102342.78
2023-04-16T18:32:04.321Z,102338.13
2023-04-16T18:34:32.243Z,102338.56
2023-04-16T18:36:59.285Z,102341.75
2023-04-16T18:39:26.426Z,102348.91
2023-04-16T18:41:53.338Z,102339.06
2023-04-16T18:44:20.742Z,102351.78
2023-04-16T18:46:48.546Z,102346.44
2023-04-16T18:49:15.693Z,102360.78
2023-04-16T18:51:42.769Z,102347.09
2023-04-16T18:54:09.723Z,102356.66
2023-04-16T18:56:36.909Z,102354.91
2023-04-16T18:59:03.960Z,102353.88
2023-04-16T19:01:31.121Z,102349.94
2023-04-16T19:03:58.205Z,102344.28
2023-04-16T19:06:25.203Z,102354.69
2023-04-16T19:08:52.146Z,102362.75
2023-04-16T19:11:19.104Z,102357.06
2023-04-16T19:13:46.315Z,102370.59
2023-04-16T19:16:13.325Z,102363.88
2023-04-16T19:18:40.376Z,102359.16
2023-04-16T19:21:07.480Z,102358.69
2023-04-16T19:23:34.728Z,102366.13
2023-04-16T19:26:01.865Z,102379.56
2023-04-16T19:28:29.161Z,102372.28
2023-04-16T19:30:56.289Z,102376.03
2023-04-16T19:33:23.268Z,102373.63
2023-04-16T19:35:50.430Z,102373.69
2023-04-16T19:38:17.481Z,102380.00
2023-04-16T19:40:46.657Z,102389.94
2023-04-16T19:43:13.989Z,102389.13
2023-04-16T19:45:54.830Z,102389.34
2023-04-16T19:48:21.909Z,102391.06
2023-04-16T19:50:48.901Z,102390.34
2023-04-16T19:53:17.248Z,102396.84
2023-04-16T19:55:44.203Z,102396.31
2023-04-16T19:58:11.146Z,102385.88
2023-04-16T20:00:43.679Z,102388.72
2023-04-16T20:03:10.895Z,102395.38
2023-04-16T20:05:37.855Z,102392.63
2023-04-16T20:08:05.506Z,102400.25
2023-04-16T20:10:32.507Z,102394.75
2023-04-16T20:12:59.558Z,102396.00
2023-04-16T20:15:26.533Z,102389.66
2023-04-16T20:17:53.613Z,102394.19
2023-04-16T20:20:22.727Z,102404.75
2023-04-16T20:22:50.041Z,102410.16
2023-04-16T20:25:19.091Z,102412.03
2023-04-16T20:27:46.534Z,102401.72
2023-04-16T20:30:14.237Z,102401.41
2023-04-16T20:32:41.193Z,102412.50
2023-04-16T20:35:10.954Z,102399.56
2023-04-16T20:37:47.468Z,102394.25
2023-04-16T20:40:15.004Z,102402.25
2023-04-16T20:42:46.297Z,102401.44
2023-04-16T20:45:13.516Z,102391.72
2023-04-16T20:47:40.565Z,102392.50
2023-04-16T20:50:08.405Z,102382.44
2023-04-16T20:52:36.517Z,102381.63
2023-04-16T20:55:03.728Z,102383.91
2023-04-16T20:57:31.981Z,102384.72
2023-04-16T20:59:58.937Z,102389.34
2023-04-16T21:02:28.179Z,102378.16
2023-04-16T21:04:55.576Z,102382.19
2023-04-16T21:07:22.641Z,102380.03
2023-04-16T21:09:49.663Z,102383.56
2023-04-16T21:12:16.615Z,102377.13
2023-04-16T21:14:43.674Z,102378.50
2023-04-16T21:17:10.865Z,102371.84
2023-04-16T21:19:37.773Z,102372.47
2023-04-16T21:22:04.860Z,102376.00
2023-04-16T21:24:32.646Z,102376.31
2023-04-16T21:26:59.620Z,102375.38
2023-04-16T21:29:26.589Z,102377.78
2023-04-16T21:31:54.262Z,102365.53
2023-04-16T21:34:21.279Z,102371.66
2023-04-16T21:36:54.353Z,102381.03
2023-04-16T21:39:30.354Z,102377.84
2023-04-16T21:41:58.074Z,102368.53
2023-04-16T21:44:25.090Z,102361.06
2023-04-16T21:46:52.030Z,102373.75
2023-04-16T21:49:19.348Z,102373.19
2023-04-16T21:51:46.255Z,102363.28
2023-04-16T21:54:17.879Z,102364.94
2023-04-16T21:56:44.889Z,102357.59
2023-04-16T21:59:11.951Z,102355.81
2023-04-16T22:01:38.997Z,102362.81
2023-04-16T22:04:07.532Z,102366.72
2023-04-16T22:06:34.546Z,102356.56
2023-04-16T22:09:01.994Z,102369.53
2023-04-16T22:11:28.931Z,102365.31
2023-04-16T22:13:57.814Z,102351.00
2023-04-16T22:16:25.693Z,102357.13
2023-04-16T22:18:55.116Z,102362.94
2023-04-16T22:21:22.015Z,102359.41
2023-04-16T22:23:48.922Z,102355.66
2023-04-16T22:26:16.135Z,102354.63
2023-04-16T22:28:43.167Z,102350.69
2023-04-16T22:31:10.120Z,102350.16
2023-04-16T22:33:37.263Z,102348.88
2023-04-16T22:36:04.610Z,102338.47
2023-04-16T22:38:38.858Z,102341.16
2023-04-16T22:41:05.875Z,102340.94
2023-04-16T22:43:36.662Z,102343.78
2023-04-16T22:46:06.487Z,102347.69
2023-04-16T22:48:36.201Z,102347.63
2023-04-16T22:51:09.122Z,102347.91
2023-04-16T22:53:36.815Z,102338.94
2023-04-16T22:56:03.896Z,102347.72
2023-04-16T22:58:31.021Z,102336.53
2023-04-16T23:00:59.485Z,102342.28
2023-04-16T23:03:27.802Z,102345.16
2023-04-16T23:05:54.831Z,102348.13
2023-04-16T23:08:21.744Z,102345.88
2023-04-16T23:10:48.643Z,102348.72
2023-04-16T23:13:17.762Z,102345.88
2023-04-16T23:15:45.908Z,102349.25
2023-04-16T23:18:13.345Z,102346.28
2023-04-16T23:20:41.339Z,102340.94
2023-04-16T23:23:08.353Z,102346.69
2023-04-16T23:25:37.318Z,102346.91
2023-04-16T23:28:06.347Z,102347.69
2023-04-16T23:30:33.243Z,102355.13
2023-04-16T23:33:24.132Z,102351.16
2023-04-16T23:35:51.099Z,102347.84
2023-04-16T23:38:18.011Z,102340.81
2023-04-16T23:40:45.015Z,102354.41
2023-04-16T23:43:18.916Z,102354.41
2023-04-16T23:45:46.011Z,102350.88
2023-04-16T23:48:19.933Z,102355.47
2023-04-16T23:50:46.862Z,102354.44
2023-04-16T23:53:13.877Z,102352.78
2023-04-16T23:55:40.937Z,102358.63
2023-04-16T23:58:08.046Z,102355.56
